Time;durP1;ratioP1;P1;durP2;ratioP2;P2;SDS_P1;SDS_P2;PMS_P1;PMS_P2;Temp;Humidity;BMP_temperature;BMP_pressure;BME280_temperature;BME280_humidity;BME280_pressure;Samples;Min_cycle;Max_cycle;Signal;HPM_P1;HPM_P2
2022/11/13 00:02:22;;;;;;;;;;;;;;;9.08;28.37;96552.81;4994514;28;20311;-72
2022/11/13 00:04:47;;;;;;;;;;;;;;;9.01;27.51;96552.53;4993261;28;19990;-72
2022/11/13 00:07:12;;;;;;;;;;;;;;;8.82;28.81;96550.75;4994029;28;19994;-72
2022/11/13 00:09:37;;;;;;;;;;;;;;;8.69;28.23;96554.56;4996933;28;20241;-72
2022/11/13 00:12:03;;;;;;;;;;;;;;;8.86;30.01;96553.94;4991919;28;20569;-72
2022/11/13 00:14:28;;;;;;;;;;;;;;;8.89;28.69;96546.53;4990603;28;20032;-72
2022/11/13 00:16:53;;;;;;;;;;;;;;;8.93;28.12;96544.41;4990108;28;20650;-72
2022/11/13 00:19:18;;;;;;;;;;;;;;;8.79;32.93;96551.88;4991640;28;20410;-72
2022/11/13 00:21:44;;;;;;;;;;;;;;;8.77;28.79;96545.03;4991665;28;19978;-72
2022/11/13 00:24:09;;;;;;;;;;;;;;;8.71;32.25;96545.59;4987934;28;19994;-72
2022/11/13 00:26:34;;;;;;;;;;;;;;;8.66;34.02;96538.91;4990045;28;19974;-72
2022/11/13 00:29:00;;;;;;;;;;;;;;;8.52;32.59;96548.16;4988076;28;20033;-72
2022/11/13 00:31:25;;;;;;;;;;;;;;;8.49;31.24;96539.63;4986302;28;20064;-72
2022/11/13 00:33:50;;;;;;;;;;;;;;;8.59;32.14;96544.91;4987741;28;20636;-72
2022/11/13 00:36:16;;;;;;;;;;;;;;;8.38;30.71;96535.31;4986588;28;20240;-72
2022/11/13 00:38:42;;;;;;;;;;;;;;;8.50;35.70;96543.97;5005882;28;20312;-72
2022/11/13 00:41:07;;;;;;;;;;;;;;;8.39;36.15;96547.59;4986461;28;19977;-72
2022/11/13 00:43:32;;;;;;;;;;;;;;;8.35;34.30;96540.91;4994746;28;19998;-72
2022/11/13 00:45:57;;;;;;;;;;;;;;;8.30;36.34;96534.19;4991091;28;20036;-72
2022/11/13 00:48:23;;;;;;;;;;;;;;;8.20;32.34;96537.84;4986945;28;20244;-72
2022/11/13 00:50:48;;;;;;;;;;;;;;;8.24;33.99;96532.13;4984121;28;20516;-72
2022/11/13 00:53:13;;;;;;;;;;;;;;;8.10;35.84;96538.69;4985257;28;19981;-72
2022/11/13 00:55:38;;;;;;;;;;;;;;;8.17;35.52;96539.78;4990770;28;19994;-72
2022/11/13 00:58:04;;;;;;;;;;;;;;;8.16;32.01;96526.69;4991314;28;19978;-72
2022/11/13 01:00:29;;;;;;;;;;;;;;;8.08;34.66;96526.53;4995254;28;20498;-72
2022/11/13 01:02:56;;;;;;;;;;;;;;;8.03;29.52;96526.97;4995853;28;19976;-72
2022/11/13 01:05:21;;;;;;;;;;;;;;;8.07;34.16;96527.50;4997714;28;20057;-72
2022/11/13 01:07:46;;;;;;;;;;;;;;;8.04;34.97;96525.97;4996015;28;20415;-72
2022/11/13 01:10:12;;;;;;;;;;;;;;;8.00;34.99;96529.88;4986586;28;20086;-72
2022/11/13 01:12:37;;;;;;;;;;;;;;;7.89;34.38;96530.88;5001427;28;19990;-72
2022/11/13 01:15:02;;;;;;;;;;;;;;;7.87;37.01;96528.34;4997828;28;20321;-72
2022/11/13 01:17:28;;;;;;;;;;;;;;;7.84;32.49;96527.78;4986635;28;19989;-72
2022/11/13 01:19:53;;;;;;;;;;;;;;;7.77;36.04;96531.00;4984063;28;19994;-72
2022/11/13 01:22:18;;;;;;;;;;;;;;;7.75;36.87;96524.13;4984951;28;20042;-72
2022/11/13 01:24:43;;;;;;;;;;;;;;;7.59;29.15;96520.19;4992011;28;19994;-72
2022/11/13 01:27:09;;;;;;;;;;;;;;;7.51;29.81;96518.22;4991409;28;20001;-72
2022/11/13 01:29:34;;;;;;;;;;;;;;;7.49;31.33;96514.88;4993507;28;19974;-72
2022/11/13 01:31:59;;;;;;;;;;;;;;;7.50;38.59;96519.19;4987696;28;19990;-72
2022/11/13 01:34:24;;;;;;;;;;;;;;;7.47;36.69;96516.81;4992398;28;20125;-72
2022/11/13 01:36:50;;;;;;;;;;;;;;;7.41;30.67;96517.34;4993628;28;19998;-72
2022/11/13 01:39:15;;;;;;;;;;;;;;;7.37;32.03;96506.19;5023943;28;20136;-72
2022/11/13 01:41:40;;;;;;;;;;;;;;;7.42;35.72;96505.81;4989132;28;20366;-72
2022/11/13 01:44:06;;;;;;;;;;;;;;;7.34;32.12;96510.94;4996800;28;20353;-72
2022/11/13 01:46:34;;;;;;;;;;;;;;;7.21;30.01;96511.19;4993809;28;19970;-72
2022/11/13 01:49:09;;;;;;;;;;;;;;;7.19;33.43;96506.00;4989382;28;19990;-72
2022/11/13 01:51:37;;;;;;;;;;;;;;;7.27;40.83;96505.31;4994176;28;20044;-72
2022/11/13 01:54:03;;;;;;;;;;;;;;;7.22;34.63;96510.19;4991371;28;19974;-72
2022/11/13 01:56:28;;;;;;;;;;;;;;;7.26;38.21;96501.00;4988106;28;20362;-72
2022/11/13 01:58:57;;;;;;;;;;;;;;;7.24;39.34;96506.44;4993090;28;20009;-72
2022/11/13 02:01:22;;;;;;;;;;;;;;;7.11;40.74;96501.38;4990370;28;19970;-72
2022/11/13 02:03:47;;;;;;;;;;;;;;;7.03;39.01;96495.91;4993331;28;20068;-72
2022/11/13 02:06:13;;;;;;;;;;;;;;;7.08;38.06;96491.06;4990359;28;19973;-72
2022/11/13 02:08:38;;;;;;;;;;;;;;;7.04;35.86;96488.81;4989852;28;19993;-72
2022/11/13 02:11:03;;;;;;;;;;;;;;;7.09;34.50;96483.94;4991818;28;19989;-72
2022/11/13 02:13:28;;;;;;;;;;;;;;;7.00;28.80;96493.53;4994273;28;19962;-72
2022/11/13 02:15:53;;;;;;;;;;;;;;;7.08;38.61;96490.22;4992156;28;20004;-72
2022/11/13 02:18:19;;;;;;;;;;;;;;;7.01;29.98;96488.09;4991968;28;19966;-72
2022/11/13 02:21:03;;;;;;;;;;;;;;;7.05;29.40;96493.97;4991670;28;20513;-71
2022/11/13 02:23:46;;;;;;;;;;;;;;;7.00;39.76;96497.03;4987626;28;20001;-72
2022/11/13 02:26:12;;;;;;;;;;;;;;;6.91;40.23;96489.91;4991616;28;20513;-71
2022/11/13 02:28:37;;;;;;;;;;;;;;;6.79;35.92;96488.28;4991498;28;20068;-72
2022/11/13 02:31:09;;;;;;;;;;;;;;;6.65;35.85;96485.03;5021038;28;20034;-72
2022/11/13 02:33:34;;;;;;;;;;;;;;;6.82;30.30;96483.59;4991825;28;19997;-72
2022/11/13 02:35:59;;;;;;;;;;;;;;;6.84;38.95;96484.28;4993877;28;20032;-72
2022/11/13 02:38:24;;;;;;;;;;;;;;;6.77;37.34;96472.56;4992131;28;19978;-72
2022/11/13 02:40:49;;;;;;;;;;;;;;;6.77;28.51;96476.03;4992307;28;20565;-72
2022/11/13 02:43:15;;;;;;;;;;;;;;;6.86;30.84;96469.09;4994560;28;20045;-72
2022/11/13 02:45:40;;;;;;;;;;;;;;;6.98;37.90;96475.16;4992787;28;19970;-72
2022/11/13 02:48:05;;;;;;;;;;;;;;;7.12;38.14;96476.59;4993433;28;20048;-72
2022/11/13 02:50:31;;;;;;;;;;;;;;;7.30;37.82;96472.44;5023604;28;20030;-72
2022/11/13 02:52:56;;;;;;;;;;;;;;;7.35;32.72;96459.63;4991221;28;20302;-72
2022/11/13 02:55:21;;;;;;;;;;;;;;;7.33;38.62;96461.56;4991482;28;19994;-72
2022/11/13 02:57:46;;;;;;;;;;;;;;;7.41;38.18;96464.38;4992911;28;20053;-72
2022/11/13 03:00:12;;;;;;;;;;;;;;;7.41;38.09;96456.41;4989287;28;20016;-72
2022/11/13 03:02:37;;;;;;;;;;;;;;;7.25;36.02;96449.84;4990398;28;20435;-72
2022/11/13 03:05:03;;;;;;;;;;;;;;;7.41;37.26;96454.63;4989242;28;19982;-72
2022/11/13 03:07:28;;;;;;;;;;;;;;;7.39;38.27;96450.44;4990999;28;20056;-72
2022/11/13 03:09:53;;;;;;;;;;;;;;;7.37;36.80;96457.66;4984352;28;20466;-72
2022/11/13 03:12:18;;;;;;;;;;;;;;;7.37;40.11;96452.38;4991759;28;19993;-72
2022/11/13 03:14:44;;;;;;;;;;;;;;;7.19;39.38;96449.53;4990467;28;20001;-72
2022/11/13 03:17:09;;;;;;;;;;;;;;;7.22;38.73;96449.28;4989896;28;19970;-72
2022/11/13 03:19:34;;;;;;;;;;;;;;;7.23;38.29;96449.16;5022571;28;19996;-72
2022/11/13 03:21:59;;;;;;;;;;;;;;;7.20;39.80;96441.47;4993118;28;20673;-72
2022/11/13 03:24:24;;;;;;;;;;;;;;;7.15;37.71;96449.00;4989589;28;20576;-72
2022/11/13 03:26:50;;;;;;;;;;;;;;;7.16;36.67;96450.66;4991342;28;19974;-72
2022/11/13 03:29:15;;;;;;;;;;;;;;;6.98;33.22;96448.69;4993199;28;20302;-72
2022/11/13 03:31:40;;;;;;;;;;;;;;;6.96;39.88;96447.97;4988374;28;19994;-72
2022/11/13 03:34:05;;;;;;;;;;;;;;;6.93;34.40;96450.06;4992769;28;20009;-72
2022/11/13 03:36:31;;;;;;;;;;;;;;;6.84;41.58;96447.22;4989525;28;20249;-72
2022/11/13 03:38:56;;;;;;;;;;;;;;;6.81;35.21;96442.22;4992094;28;19992;-72
2022/11/13 03:41:21;;;;;;;;;;;;;;;6.89;36.54;96439.72;4991385;28;19977;-72
2022/11/13 03:43:47;;;;;;;;;;;;;;;6.93;38.43;96442.13;4994591;28;19998;-72
2022/11/13 03:46:12;;;;;;;;;;;;;;;7.01;39.18;96437.78;4988835;28;19970;-72
2022/11/13 03:48:37;;;;;;;;;;;;;;;6.98;40.01;96435.44;4991393;28;20001;-72
2022/11/13 03:51:03;;;;;;;;;;;;;;;7.04;40.54;96434.03;4990586;28;20073;-72
2022/11/13 03:53:28;;;;;;;;;;;;;;;7.01;39.63;96434.34;4990279;28;20096;-71
2022/11/13 03:55:53;;;;;;;;;;;;;;;6.97;39.26;96432.94;4990319;28;19990;-72
2022/11/13 03:58:19;;;;;;;;;;;;;;;6.88;39.28;96431.91;4991095;28;19970;-72
2022/11/13 04:00:44;;;;;;;;;;;;;;;6.75;31.13;96430.34;4990054;28;19994;-72
2022/11/13 04:03:10;;;;;;;;;;;;;;;6.83;40.82;96424.38;4986674;28;20003;-72
2022/11/13 04:05:35;;;;;;;;;;;;;;;6.80;39.60;96423.81;4991564;28;19973;-72
2022/11/13 04:08:00;;;;;;;;;;;;;;;6.83;35.83;96423.56;4993875;28;20455;-72
2022/11/13 04:10:25;;;;;;;;;;;;;;;6.81;37.89;96420.19;4992079;28;20476;-72
2022/11/13 04:12:50;;;;;;;;;;;;;;;6.83;37.42;96418.25;4993228;28;20305;-72
2022/11/13 04:15:16;;;;;;;;;;;;;;;6.93;36.25;96416.47;4996457;28;19990;-72
2022/11/13 04:17:41;;;;;;;;;;;;;;;6.93;34.88;96413.00;4987829;28;20001;-72
2022/11/13 04:20:07;;;;;;;;;;;;;;;6.91;37.39;96402.53;4991997;28;20001;-72
2022/11/13 04:22:32;;;;;;;;;;;;;;;6.87;36.31;96401.94;4997433;28;20315;-71
2022/11/13 04:24:57;;;;;;;;;;;;;;;6.67;30.26;96395.78;4993973;28;20012;-72
2022/11/13 04:27:22;;;;;;;;;;;;;;;6.62;35.59;96395.31;4991019;28;20297;-72
2022/11/13 04:29:48;;;;;;;;;;;;;;;6.57;35.00;96386.97;4991996;28;19966;-72
2022/11/13 04:32:13;;;;;;;;;;;;;;;6.55;38.33;96396.81;4995079;28;19994;-72
2022/11/13 04:34:38;;;;;;;;;;;;;;;6.57;38.16;96398.38;4991024;28;19978;-72
2022/11/13 04:37:03;;;;;;;;;;;;;;;6.58;38.73;96394.78;4998895;28;20223;-72
2022/11/13 04:39:29;;;;;;;;;;;;;;;6.57;36.57;96395.75;4993336;28;20092;-72
2022/11/13 04:44:38;;;;;;;;;;;;;;;6.42;37.65;96379.34;4990349;28;20004;-71
2022/11/13 04:47:03;;;;;;;;;;;;;;;6.43;41.09;96386.31;4991787;28;19970;-72
2022/11/13 04:49:28;;;;;;;;;;;;;;;6.40;40.08;96386.59;5009767;28;20006;-72
2022/11/13 04:51:53;;;;;;;;;;;;;;;6.44;39.62;96381.88;4992221;28;20002;-72
2022/11/13 04:54:18;;;;;;;;;;;;;;;6.43;38.78;96388.13;4995596;28;20287;-72
2022/11/13 04:56:44;;;;;;;;;;;;;;;6.47;41.70;96385.06;4991819;28;20383;-72
2022/11/13 04:59:09;;;;;;;;;;;;;;;6.42;39.60;96379.34;4994131;28;19982;-72
2022/11/13 05:01:34;;;;;;;;;;;;;;;6.33;35.61;96374.88;4991738;28;20013;-72
2022/11/13 05:04:00;;;;;;;;;;;;;;;6.23;34.68;96374.81;4993192;28;20260;-72
2022/11/13 05:06:25;;;;;;;;;;;;;;;6.37;40.22;96365.69;4991811;28;19985;-72
2022/11/13 05:08:50;;;;;;;;;;;;;;;6.37;38.91;96365.69;4991728;28;19990;-72
2022/11/13 05:11:15;;;;;;;;;;;;;;;6.31;36.11;96367.06;4991282;28;20118;-72
2022/11/13 05:13:41;;;;;;;;;;;;;;;6.38;39.72;96367.34;4990879;28;20455;-72
2022/11/13 05:16:07;;;;;;;;;;;;;;;6.43;38.55;96366.97;4995104;28;20048;-72
2022/11/13 05:18:33;;;;;;;;;;;;;;;6.42;39.33;96354.72;4996774;28;20483;-72
2022/11/13 05:20:58;;;;;;;;;;;;;;;6.40;34.93;96362.78;4990235;28;19994;-72
2022/11/13 05:23:23;;;;;;;;;;;;;;;6.42;39.42;96352.06;4990270;28;20072;-72
2022/11/13 05:25:49;;;;;;;;;;;;;;;6.39;35.36;96353.16;4993564;28;20442;-72
2022/11/13 05:28:14;;;;;;;;;;;;;;;6.54;40.68;96347.53;4990232;28;20191;-72
2022/11/13 05:30:39;;;;;;;;;;;;;;;6.49;35.71;96347.94;4993955;28;20036;-72
2022/11/13 05:33:04;;;;;;;;;;;;;;;6.50;38.05;96344.34;4986014;28;20008;-72
2022/11/13 05:35:30;;;;;;;;;;;;;;;6.54;38.09;96339.59;4989536;28;20127;-72
2022/11/13 05:37:55;;;;;;;;;;;;;;;6.53;38.35;96335.28;4989597;28;20057;-71
2022/11/13 05:40:20;;;;;;;;;;;;;;;6.64;39.62;96335.19;4990803;28;20486;-72
2022/11/13 05:42:45;;;;;;;;;;;;;;;6.59;40.10;96337.38;4988751;28;19978;-72
2022/11/13 05:45:10;;;;;;;;;;;;;;;6.62;34.77;96334.47;4998300;28;20230;-72
2022/11/13 05:47:36;;;;;;;;;;;;;;;6.77;36.33;96333.13;4991187;28;20047;-72
2022/11/13 05:50:01;;;;;;;;;;;;;;;6.83;34.83;96326.44;4992820;28;20533;-72
2022/11/13 05:52:26;;;;;;;;;;;;;;;6.79;36.91;96326.84;4991565;28;19985;-72
2022/11/13 05:54:51;;;;;;;;;;;;;;;6.68;35.65;96323.34;4996495;28;19974;-72
2022/11/13 05:57:17;;;;;;;;;;;;;;;6.79;35.25;96325.03;4998903;28;19966;-72
2022/11/13 05:59:42;;;;;;;;;;;;;;;6.74;35.30;96324.63;4988812;28;20025;-72
2022/11/13 06:02:07;;;;;;;;;;;;;;;6.75;37.05;96328.94;4984390;28;20327;-72
2022/11/13 06:04:32;;;;;;;;;;;;;;;6.54;35.06;96321.94;4984220;28;20542;-72
2022/11/13 06:06:58;;;;;;;;;;;;;;;6.57;39.92;96323.47;4994347;28;20129;-72
2022/11/13 06:09:23;;;;;;;;;;;;;;;6.47;40.40;96318.94;4992255;28;19981;-72
2022/11/13 06:11:48;;;;;;;;;;;;;;;6.46;38.38;96316.44;4989499;28;20326;-72
2022/11/13 06:14:13;;;;;;;;;;;;;;;6.40;35.64;96311.69;4994107;28;20445;-72
2022/11/13 06:16:39;;;;;;;;;;;;;;;6.49;35.19;96308.25;4992126;28;20089;-72
2022/11/13 06:19:05;;;;;;;;;;;;;;;6.37;33.64;96310.16;4997902;28;20040;-72
2022/11/13 06:21:30;;;;;;;;;;;;;;;6.28;39.66;96310.94;4999755;28;20467;-72
2022/11/13 06:23:56;;;;;;;;;;;;;;;6.29;38.01;96309.97;4998927;28;19998;-72
2022/11/13 06:26:22;;;;;;;;;;;;;;;6.22;40.15;96304.38;4998983;28;20143;-72
2022/11/13 06:28:48;;;;;;;;;;;;;;;6.23;39.53;96304.25;4986103;28;20002;-72
2022/11/13 06:31:14;;;;;;;;;;;;;;;6.37;38.63;96300.38;4984366;28;20001;-72
2022/11/13 06:33:39;;;;;;;;;;;;;;;6.37;39.57;96302.22;4984026;28;20009;-72
2022/11/13 06:36:06;;;;;;;;;;;;;;;6.53;38.64;96287.66;4984744;28;20032;-72
2022/11/13 06:38:31;;;;;;;;;;;;;;;6.64;40.67;96295.50;4985758;28;19966;-72
2022/11/13 06:40:57;;;;;;;;;;;;;;;6.55;38.47;96291.00;4993106;28;20226;-72
2022/11/13 06:43:22;;;;;;;;;;;;;;;6.65;39.14;96294.50;4996863;28;20014;-72
2022/11/13 06:45:47;;;;;;;;;;;;;;;6.52;36.22;96286.00;4997499;28;19977;-72
2022/11/13 06:48:12;;;;;;;;;;;;;;;6.63;36.35;96285.84;4988747;28;19996;-72
2022/11/13 06:50:38;;;;;;;;;;;;;;;6.67;40.13;96282.00;4989691;28;20363;-72
2022/11/13 06:53:03;;;;;;;;;;;;;;;6.66;38.33;96290.88;4993320;28;19997;-72
2022/11/13 06:55:28;;;;;;;;;;;;;;;6.54;35.99;96294.63;4991515;28;20085;-72
2022/11/13 06:57:53;;;;;;;;;;;;;;;6.56;39.76;96290.06;4989208;28;19974;-72
2022/11/13 07:00:19;;;;;;;;;;;;;;;6.70;36.69;96289.63;4988695;28;19996;-72
2022/11/13 07:02:44;;;;;;;;;;;;;;;6.64;35.97;96279.63;4992325;28;20005;-72
2022/11/13 07:05:09;;;;;;;;;;;;;;;6.65;36.86;96278.63;4987719;28;20064;-72
2022/11/13 07:07:34;;;;;;;;;;;;;;;6.81;31.38;96277.25;4994439;28;20033;-72
2022/11/13 07:10:00;;;;;;;;;;;;;;;6.93;30.75;96276.16;4987500;28;19969;-72
2022/11/13 07:12:26;;;;;;;;;;;;;;;7.25;29.53;96275.03;4991228;28;20005;-72
2022/11/13 07:14:51;;;;;;;;;;;;;;;7.39;28.92;96273.75;4991445;28;19986;-72
2022/11/13 07:17:17;;;;;;;;;;;;;;;7.48;27.89;96274.72;4991891;28;20028;-72
2022/11/13 07:19:42;;;;;;;;;;;;;;;7.36;27.77;96267.91;4987795;28;20009;-72
2022/11/13 07:22:07;;;;;;;;;;;;;;;7.60;30.85;96279.88;4988799;28;20028;-72
2022/11/13 07:24:32;;;;;;;;;;;;;;;7.62;26.63;96264.66;4989885;28;20005;-71
2022/11/13 07:26:57;;;;;;;;;;;;;;;7.85;25.10;96265.19;4988978;28;20032;-72
2022/11/13 07:29:23;;;;;;;;;;;;;;;7.99;25.43;96263.88;4991130;28;20487;-72
2022/11/13 07:31:48;;;;;;;;;;;;;;;7.95;26.58;96262.50;4990085;28;20350;-71
2022/11/13 07:34:13;;;;;;;;;;;;;;;8.25;24.83;96263.19;4991765;28;19993;-71
2022/11/13 07:36:38;;;;;;;;;;;;;;;8.26;25.72;96256.09;4989407;28;19994;-71
2022/11/13 07:39:04;;;;;;;;;;;;;;;8.27;26.56;96263.06;4992103;28;19990;-72
2022/11/13 07:41:29;;;;;;;;;;;;;;;8.39;25.38;96261.03;4990694;28;19978;-71
2022/11/13 07:43:54;;;;;;;;;;;;;;;8.34;28.83;96256.19;4994384;28;19993;-72
2022/11/13 07:46:19;;;;;;;;;;;;;;;8.66;27.09;96251.38;4996794;28;19969;-72
2022/11/13 07:48:45;;;;;;;;;;;;;;;8.79;25.45;96243.88;4991907;28;19994;-71
2022/11/13 07:51:10;;;;;;;;;;;;;;;8.92;25.80;96245.31;4988439;28;20407;-72
2022/11/13 07:53:37;;;;;;;;;;;;;;;9.11;26.79;96243.53;4995632;28;19974;-71
2022/11/13 07:56:03;;;;;;;;;;;;;;;9.14;24.55;96252.00;4998637;28;19994;-71
2022/11/13 07:58:28;;;;;;;;;;;;;;;9.25;22.83;96234.97;4999406;28;20394;-71
2022/11/13 08:00:53;;;;;;;;;;;;;;;9.49;22.92;96241.50;4997725;28;19990;-71
2022/11/13 08:03:19;;;;;;;;;;;;;;;9.64;22.45;96232.94;4986657;28;19990;-72
2022/11/13 08:05:44;;;;;;;;;;;;;;;9.58;23.34;96239.69;4987176;28;19970;-72
2022/11/13 08:08:13;;;;;;;;;;;;;;;9.96;22.37;96226.09;4989178;28;20077;-72
2022/11/13 08:10:38;;;;;;;;;;;;;;;10.04;22.67;96227.97;4994158;28;20323;-72
2022/11/13 08:13:05;;;;;;;;;;;;;;;9.56;24.93;96239.84;4994853;28;20056;-72
2022/11/13 08:15:30;;;;;;;;;;;;;;;10.08;22.01;96227.53;4993681;28;20139;-72
2022/11/13 08:17:56;;;;;;;;;;;;;;;10.01;21.78;96234.47;4996214;28;20514;-72
2022/11/13 08:20:21;;;;;;;;;;;;;;;10.28;21.39;96229.09;4996921;28;19994;-72
2022/11/13 08:22:46;;;;;;;;;;;;;;;10.51;21.24;96226.69;5002052;28;20028;-72
2022/11/13 08:25:12;;;;;;;;;;;;;;;10.48;24.22;96224.34;4998050;28;19985;-72
2022/11/13 08:27:37;;;;;;;;;;;;;;;10.36;24.70;96234.44;4985820;28;19994;-72
2022/11/13 08:30:02;;;;;;;;;;;;;;;10.75;20.96;96230.41;4989439;28;20486;-72
2022/11/13 08:32:27;;;;;;;;;;;;;;;11.11;23.05;96223.94;4988204;28;19994;-72
2022/11/13 08:34:53;;;;;;;;;;;;;;;10.84;21.88;96221.41;4994760;28;19978;-72
2022/11/13 08:37:18;;;;;;;;;;;;;;;11.33;21.19;96218.94;4989127;28;20569;-72
2022/11/13 08:39:43;;;;;;;;;;;;;;;11.41;27.50;96229.59;4994786;28;20006;-72
2022/11/13 08:42:08;;;;;;;;;;;;;;;11.45;26.52;96225.59;4994769;28;19974;-72
2022/11/13 08:44:34;;;;;;;;;;;;;;;11.52;22.26;96218.59;4987838;28;20385;-72
2022/11/13 08:46:59;;;;;;;;;;;;;;;11.42;19.86;96214.44;4994807;28;20447;-72
2022/11/13 08:49:24;;;;;;;;;;;;;;;11.90;19.44;96210.00;4991065;28;19969;-72
2022/11/13 08:51:49;;;;;;;;;;;;;;;12.26;18.80;96222.06;4992319;28;20001;-72
2022/11/13 08:54:15;;;;;;;;;;;;;;;12.38;18.32;96214.50;4993504;28;19978;-72
2022/11/13 08:56:40;;;;;;;;;;;;;;;12.51;18.51;96213.09;4991771;28;20088;-72
2022/11/13 08:59:07;;;;;;;;;;;;;;;12.70;19.50;96206.47;4990704;28;20043;-72
2022/11/13 09:01:32;;;;;;;;;;;;;;;12.85;20.66;96211.88;4995981;28;20430;-73
2022/11/13 09:03:58;;;;;;;;;;;;;;;12.45;20.86;96216.47;4993633;28;20401;-72
2022/11/13 09:06:23;;;;;;;;;;;;;;;12.39;30.10;96215.34;4990728;28;20836;-72
2022/11/13 09:08:48;;;;;;;;;;;;;;;12.96;19.93;96204.47;4991592;28;20076;-73
2022/11/13 09:11:13;;;;;;;;;;;;;;;13.36;19.04;96209.69;4994867;28;20009;-72
2022/11/13 09:13:39;;;;;;;;;;;;;;;13.28;25.30;96202.53;4986689;28;19988;-72
2022/11/13 09:16:04;;;;;;;;;;;;;;;13.20;19.39;96199.94;4987246;28;20084;-72
2022/11/13 09:18:29;;;;;;;;;;;;;;;13.35;20.70;96198.13;4990791;28;19970;-72
2022/11/13 09:20:54;;;;;;;;;;;;;;;13.52;20.13;96206.84;4995055;28;20132;-72
2022/11/13 09:23:20;;;;;;;;;;;;;;;13.39;23.05;96198.59;4986136;28;20458;-72
2022/11/13 09:25:45;;;;;;;;;;;;;;;13.72;21.69;96197.44;4990961;28;20576;-72
2022/11/13 09:28:10;;;;;;;;;;;;;;;13.95;19.93;96192.84;4994001;28;20377;-72
2022/11/13 09:30:36;;;;;;;;;;;;;;;14.11;18.45;96187.50;4988852;28;19990;-73
2022/11/13 09:33:01;;;;;;;;;;;;;;;14.04;21.75;96184.75;4989042;28;19990;-73
2022/11/13 09:35:33;;;;;;;;;;;;;;;14.30;20.67;96186.91;4989994;28;20100;-72
2022/11/13 09:38:02;;;;;;;;;;;;;;;14.34;19.09;96180.16;4987463;28;19992;-72
2022/11/13 09:40:29;;;;;;;;;;;;;;;14.01;19.16;96187.78;4991406;28;20343;-73
2022/11/13 09:42:55;;;;;;;;;;;;;;;14.39;18.36;96181.44;4991522;28;20017;-73
2022/11/13 09:45:20;;;;;;;;;;;;;;;14.33;18.26;96175.00;4988034;28;19984;-72
2022/11/13 09:47:45;;;;;;;;;;;;;;;14.45;18.47;96181.50;4988352;28;20001;-72
2022/11/13 09:50:12;;;;;;;;;;;;;;;14.50;19.03;96175.59;4991179;28;19988;-73
2022/11/13 09:52:41;;;;;;;;;;;;;;;14.41;18.35;96180.22;4988379;28;19990;-72
2022/11/13 09:55:13;;;;;;;;;;;;;;;14.21;19.93;96179.97;4991482;28;19990;-72
2022/11/13 09:57:47;;;;;;;;;;;;;;;14.88;18.59;96179.91;4987738;28;20462;-72
2022/11/13 10:00:19;;;;;;;;;;;;;;;14.80;18.72;96177.38;4985637;28;20212;-72
2022/11/13 10:02:47;;;;;;;;;;;;;;;14.84;18.20;96173.28;4985713;28;19972;-72
2022/11/13 10:05:12;;;;;;;;;;;;;;;14.89;18.64;96164.66;4993075;28;19970;-73
2022/11/13 10:07:45;;;;;;;;;;;;;;;14.78;18.57;96166.00;4992335;28;20412;-73
2022/11/13 10:10:29;;;;;;;;;;;;;;;14.97;19.48;96165.38;4985681;28;20485;-72
2022/11/13 10:12:55;;;;;;;;;;;;;;;15.00;19.68;96166.00;4992253;28;20502;-73
2022/11/13 10:15:20;;;;;;;;;;;;;;;14.91;18.36;96158.09;4991579;28;20017;-72
2022/11/13 10:17:49;;;;;;;;;;;;;;;14.98;18.48;96145.56;4986141;28;20563;-73
2022/11/13 10:20:21;;;;;;;;;;;;;;;15.08;19.98;96147.09;4984559;28;20553;-72
2022/11/13 10:22:48;;;;;;;;;;;;;;;15.13;18.21;96147.31;4993459;28;20040;-72
2022/11/13 10:25:14;;;;;;;;;;;;;;;15.16;18.61;96146.94;4984175;28;20301;-72
2022/11/13 10:27:40;;;;;;;;;;;;;;;15.54;18.48;96139.56;4989754;28;19993;-73
2022/11/13 10:30:11;;;;;;;;;;;;;;;15.67;18.05;96133.50;4988036;28;19977;-73
2022/11/13 10:32:36;;;;;;;;;;;;;;;15.70;17.72;96136.59;4989692;28;20497;-72
2022/11/13 10:35:05;;;;;;;;;;;;;;;15.97;17.30;96134.03;4989133;28;20483;-72
2022/11/13 10:37:48;;;;;;;;;;;;;;;15.81;19.71;96134.38;4990830;28;20393;-73
2022/11/13 10:40:24;;;;;;;;;;;;;;;15.99;16.70;96126.63;4986294;28;20108;-72
2022/11/13 10:42:49;;;;;;;;;;;;;;;16.20;17.00;96122.16;4986684;28;19970;-72
2022/11/13 10:45:15;;;;;;;;;;;;;;;16.19;19.07;96123.19;4992434;28;19981;-72
2022/11/13 10:47:47;;;;;;;;;;;;;;;16.25;15.31;96122.38;4990152;28;20085;-72
2022/11/13 10:50:28;;;;;;;;;;;;;;;16.32;15.91;96113.50;4991800;28;20634;-72
2022/11/13 10:52:54;;;;;;;;;;;;;;;16.49;15.36;96104.06;4986065;28;20393;-72
2022/11/13 10:55:21;;;;;;;;;;;;;;;16.74;15.54;96102.66;4990801;28;20096;-72
2022/11/13 10:57:56;;;;;;;;;;;;;;;16.74;13.92;96092.72;4987933;28;19970;-72
2022/11/13 11:00:25;;;;;;;;;;;;;;;16.69;15.11;96097.06;4991405;28;19989;-72
2022/11/13 11:02:51;;;;;;;;;;;;;;;16.70;15.27;96088.81;4989310;28;20241;-72
2022/11/13 11:05:17;;;;;;;;;;;;;;;16.74;14.71;96084.66;4993500;28;20341;-72
2022/11/13 11:07:42;;;;;;;;;;;;;;;16.85;14.15;96082.38;4988591;28;19990;-72
2022/11/13 11:10:20;;;;;;;;;;;;;;;16.88;14.00;96077.41;4987443;28;20054;-72
2022/11/13 11:12:55;;;;;;;;;;;;;;;16.97;13.99;96077.22;4990025;28;20020;-72
2022/11/13 11:15:23;;;;;;;;;;;;;;;17.24;13.23;96077.22;4984035;28;20475;-73
2022/11/13 11:17:49;;;;;;;;;;;;;;;17.20;12.82;96066.03;4990766;28;20200;-73
2022/11/13 11:20:33;;;;;;;;;;;;;;;17.26;13.32;96073.28;4989121;28;20345;-73
2022/11/13 11:23:18;;;;;;;;;;;;;;;17.26;14.37;96061.66;4983474;28;20086;-73
2022/11/13 11:25:47;;;;;;;;;;;;;;;17.55;13.04;96062.22;4983584;28;19984;-73
2022/11/13 11:28:30;;;;;;;;;;;;;;;17.81;13.27;96057.78;4990906;28;20468;-73
2022/11/13 11:31:03;;;;;;;;;;;;;;;17.94;14.87;96054.22;4987267;28;20456;-74
2022/11/13 11:33:33;;;;;;;;;;;;;;;17.99;12.84;96051.75;4983844;28;20036;-73
2022/11/13 11:35:58;;;;;;;;;;;;;;;18.17;14.02;96048.31;4986892;28;20432;-74
2022/11/13 11:38:24;;;;;;;;;;;;;;;18.44;13.93;96047.31;4990448;28;19968;-73
2022/11/13 11:40:54;;;;;;;;;;;;;;;18.38;13.25;96048.16;4987570;28;19990;-73
2022/11/13 11:43:26;;;;;;;;;;;;;;;18.95;12.64;96044.66;4990233;28;20009;-72
2022/11/13 11:45:51;;;;;;;;;;;;;;;19.44;13.25;96039.41;4987454;28;19966;-73
2022/11/13 11:48:25;;;;;;;;;;;;;;;20.39;12.83;96032.81;4986058;28;20432;-74
2022/11/13 11:50:53;;;;;;;;;;;;;;;22.34;12.17;96021.31;4986915;28;19976;-73
2022/11/13 11:53:21;;;;;;;;;;;;;;;25.04;9.79;96024.69;4991224;28;19963;-73
2022/11/13 11:55:55;;;;;;;;;;;;;;;27.57;9.15;96023.81;4987867;28;19970;-72
2022/11/13 11:58:30;;;;;;;;;;;;;;;28.84;7.87;96024.47;4990767;28;19993;-72
2022/11/13 12:01:01;;;;;;;;;;;;;;;30.44;6.11;96010.00;4991431;28;20045;-74
2022/11/13 12:03:36;;;;;;;;;;;;;;;31.55;5.95;96002.34;4986687;28;20061;-73
2022/11/13 12:06:12;;;;;;;;;;;;;;;31.71;5.18;95989.09;4990308;28;20334;-73
2022/11/13 12:08:40;;;;;;;;;;;;;;;33.32;4.54;95998.25;4972542;28;20299;-74
2022/11/13 12:11:14;;;;;;;;;;;;;;;35.24;6.31;96001.81;4978050;28;20031;-74
2022/11/13 12:13:48;;;;;;;;;;;;;;;35.17;4.52;95992.03;4987819;28;20161;-73
2022/11/13 12:16:17;;;;;;;;;;;;;;;35.61;3.85;95985.50;4987034;28;19918;-74
2022/11/13 12:18:45;;;;;;;;;;;;;;;36.25;3.80;95980.06;5003128;28;20421;-75
2022/11/13 12:21:25;;;;;;;;;;;;;;;37.57;4.50;95977.06;4992039;28;20406;-71
2022/11/13 12:23:52;;;;;;;;;;;;;;;37.92;2.98;95962.69;4987947;28;19926;-72
2022/11/13 12:26:33;;;;;;;;;;;;;;;39.16;3.11;95968.91;4989504;28;20438;-72
2022/11/13 12:29:08;;;;;;;;;;;;;;;40.64;3.08;95972.59;4990211;28;19928;-71
2022/11/13 12:31:38;;;;;;;;;;;;;;;40.24;2.11;95967.00;4991800;28;20616;-72
2022/11/13 12:34:09;;;;;;;;;;;;;;;40.27;3.71;95962.69;4995560;28;19945;-72
2022/11/13 12:36:34;;;;;;;;;;;;;;;41.32;3.21;95972.19;4993352;28;20373;-72
2022/11/13 12:38:59;;;;;;;;;;;;;;;42.20;2.27;95974.28;4991264;28;19949;-72
2022/11/13 12:41:41;;;;;;;;;;;;;;;42.38;2.12;95974.56;4990800;28;20394;-72
2022/11/13 12:44:23;;;;;;;;;;;;;;;43.37;2.54;95961.50;4994450;28;19933;-73
2022/11/13 12:46:48;;;;;;;;;;;;;;;43.54;1.93;95969.28;4992308;28;19956;-73
2022/11/13 12:49:23;;;;;;;;;;;;;;;43.62;1.72;95950.50;4983679;28;20362;-72
2022/11/13 12:52:12;;;;;;;;;;;;;;;43.81;1.92;95957.88;4989355;28;20334;-72
2022/11/13 12:54:37;;;;;;;;;;;;;;;44.53;1.99;95950.97;4991434;28;19922;-73
2022/11/13 12:57:11;;;;;;;;;;;;;;;44.06;2.70;95947.94;4991659;28;19921;-72